sensor_id;sensor_type;location;lat;lon;timestamp;P1;durP1;ratioP1;P2;durP2;ratioP2
32152;SDS011;18656;50.580;11.392;2022-11-04T00:01:56;8.65;;;3.97;;
32152;SDS011;18656;50.580;11.392;2022-11-04T00:04:24;11.73;;;3.63;;
32152;SDS011;18656;50.580;11.392;2022-11-04T00:06:52;6.40;;;3.28;;
32152;SDS011;18656;50.580;11.392;2022-11-04T00:09:20;6.82;;;3.40;;
32152;SDS011;18656;50.580;11.392;2022-11-04T00:11:48;7.25;;;3.75;;
32152;SDS011;18656;50.580;11.392;2022-11-04T00:14:34;7.60;;;3.47;;
32152;SDS011;18656;50.580;11.392;2022-11-04T00:17:02;6.47;;;3.70;;
32152;SDS011;18656;50.580;11.392;2022-11-04T00:19:45;3.67;;;3.13;;
32152;SDS011;18656;50.580;11.392;2022-11-04T00:22:32;7.40;;;4.03;;
32152;SDS011;18656;50.580;11.392;2022-11-04T00:25:18;5.95;;;3.35;;
32152;SDS011;18656;50.580;11.392;2022-11-04T00:28:05;8.57;;;4.28;;
32152;SDS011;18656;50.580;11.392;2022-11-04T00:30:56;9.57;;;5.43;;
32152;SDS011;18656;50.580;11.392;2022-11-04T00:33:44;9.32;;;5.05;;
32152;SDS011;18656;50.580;11.392;2022-11-04T00:36:11;8.57;;;4.28;;
32152;SDS011;18656;50.580;11.392;2022-11-04T00:38:39;8.13;;;3.53;;
32152;SDS011;18656;50.580;11.392;2022-11-04T00:41:06;6.93;;;3.90;;
32152;SDS011;18656;50.580;11.392;2022-11-04T00:46:19;10.93;;;4.07;;
32152;SDS011;18656;50.580;11.392;2022-11-04T00:48:46;7.63;;;4.80;;
32152;SDS011;18656;50.580;11.392;2022-11-04T00:51:13;6.65;;;4.65;;
32152;SDS011;18656;50.580;11.392;2022-11-04T00:53:41;9.18;;;5.35;;
32152;SDS011;18656;50.580;11.392;2022-11-04T00:56:08;8.00;;;5.13;;
32152;SDS011;18656;50.580;11.392;2022-11-04T00:58:35;11.35;;;5.00;;
32152;SDS011;18656;50.580;11.392;2022-11-04T01:01:06;8.05;;;4.55;;
32152;SDS011;18656;50.580;11.392;2022-11-04T01:03:34;10.40;;;5.85;;
32152;SDS011;18656;50.580;11.392;2022-11-04T01:06:01;14.30;;;5.63;;
32152;SDS011;18656;50.580;11.392;2022-11-04T01:08:29;8.98;;;5.45;;
32152;SDS011;18656;50.580;11.392;2022-11-04T01:10:59;7.25;;;4.97;;
32152;SDS011;18656;50.580;11.392;2022-11-04T01:13:26;8.63;;;5.30;;
32152;SDS011;18656;50.580;11.392;2022-11-04T01:15:56;11.68;;;5.50;;
32152;SDS011;18656;50.580;11.392;2022-11-04T01:18:23;11.20;;;6.20;;
32152;SDS011;18656;50.580;11.392;2022-11-04T01:20:50;14.35;;;5.60;;
32152;SDS011;18656;50.580;11.392;2022-11-04T01:23:18;10.38;;;5.95;;
32152;SDS011;18656;50.580;11.392;2022-11-04T01:25:45;9.50;;;5.45;;
32152;SDS011;18656;50.580;11.392;2022-11-04T01:28:12;11.52;;;6.28;;
32152;SDS011;18656;50.580;11.392;2022-11-04T01:30:40;12.10;;;6.18;;
32152;SDS011;18656;50.580;11.392;2022-11-04T01:33:07;7.93;;;5.75;;
32152;SDS011;18656;50.580;11.392;2022-11-04T01:35:35;8.32;;;5.53;;
32152;SDS011;18656;50.580;11.392;2022-11-04T01:38:02;8.00;;;6.18;;
32152;SDS011;18656;50.580;11.392;2022-11-04T01:40:34;8.82;;;5.82;;
32152;SDS011;18656;50.580;11.392;2022-11-04T01:43:01;9.70;;;6.53;;
32152;SDS011;18656;50.580;11.392;2022-11-04T01:45:28;10.82;;;5.95;;
32152;SDS011;18656;50.580;11.392;2022-11-04T01:47:58;10.95;;;6.63;;
32152;SDS011;18656;50.580;11.392;2022-11-04T01:50:27;11.65;;;6.53;;
32152;SDS011;18656;50.580;11.392;2022-11-04T01:53:18;10.02;;;5.85;;
32152;SDS011;18656;50.580;11.392;2022-11-04T01:55:44;8.23;;;6.00;;
32152;SDS011;18656;50.580;11.392;2022-11-04T01:58:14;7.05;;;5.82;;
32152;SDS011;18656;50.580;11.392;2022-11-04T02:00:42;9.35;;;5.80;;
32152;SDS011;18656;50.580;11.392;2022-11-04T02:03:16;8.05;;;5.82;;
32152;SDS011;18656;50.580;11.392;2022-11-04T02:05:44;7.63;;;5.47;;
32152;SDS011;18656;50.580;11.392;2022-11-04T02:08:12;7.68;;;5.22;;
32152;SDS011;18656;50.580;11.392;2022-11-04T02:10:40;7.10;;;5.13;;
32152;SDS011;18656;50.580;11.392;2022-11-04T02:13:10;6.70;;;5.25;;
32152;SDS011;18656;50.580;11.392;2022-11-04T02:15:56;7.25;;;5.28;;
32152;SDS011;18656;50.580;11.392;2022-11-04T02:18:43;6.55;;;4.82;;
32152;SDS011;18656;50.580;11.392;2022-11-04T02:31:43;4.60;;;4.18;;
32152;SDS011;18656;50.580;11.392;2022-11-04T02:34:17;4.72;;;4.20;;
32152;SDS011;18656;50.580;11.392;2022-11-04T02:36:57;4.97;;;3.90;;
32152;SDS011;18656;50.580;11.392;2022-11-04T02:44:37;5.28;;;3.42;;
32152;SDS011;18656;50.580;11.392;2022-11-04T02:47:06;4.20;;;3.42;;
32152;SDS011;18656;50.580;11.392;2022-11-04T02:49:43;4.05;;;3.60;;
32152;SDS011;18656;50.580;11.392;2022-11-04T02:52:14;4.00;;;3.70;;
32152;SDS011;18656;50.580;11.392;2022-11-04T02:54:46;3.30;;;3.10;;
32152;SDS011;18656;50.580;11.392;2022-11-04T02:57:15;3.00;;;2.78;;
32152;SDS011;18656;50.580;11.392;2022-11-04T02:59:47;3.33;;;3.13;;
32152;SDS011;18656;50.580;11.392;2022-11-04T03:02:16;4.10;;;3.72;;
32152;SDS011;18656;50.580;11.392;2022-11-04T03:04:45;3.45;;;2.92;;
32152;SDS011;18656;50.580;11.392;2022-11-04T03:07:14;3.13;;;2.70;;
32152;SDS011;18656;50.580;11.392;2022-11-04T03:09:55;3.20;;;3.00;;
32152;SDS011;18656;50.580;11.392;2022-11-04T03:12:24;2.67;;;2.47;;
32152;SDS011;18656;50.580;11.392;2022-11-04T03:14:54;2.35;;;2.22;;
32152;SDS011;18656;50.580;11.392;2022-11-04T03:17:27;2.92;;;2.42;;
32152;SDS011;18656;50.580;11.392;2022-11-04T03:19:57;2.83;;;2.63;;
32152;SDS011;18656;50.580;11.392;2022-11-04T03:22:26;2.15;;;2.05;;
32152;SDS011;18656;50.580;11.392;2022-11-04T03:24:55;2.38;;;2.25;;
32152;SDS011;18656;50.580;11.392;2022-11-04T03:32:43;5.75;;;2.13;;
32152;SDS011;18656;50.580;11.392;2022-11-04T03:35:12;3.55;;;2.33;;
32152;SDS011;18656;50.580;11.392;2022-11-04T03:37:41;2.22;;;1.85;;
32152;SDS011;18656;50.580;11.392;2022-11-04T03:40:08;2.22;;;2.03;;
32152;SDS011;18656;50.580;11.392;2022-11-04T03:42:39;2.17;;;1.98;;
32152;SDS011;18656;50.580;11.392;2022-11-04T03:45:07;2.33;;;2.10;;
32152;SDS011;18656;50.580;11.392;2022-11-04T03:47:35;5.40;;;2.47;;
32152;SDS011;18656;50.580;11.392;2022-11-04T03:50:11;2.28;;;2.05;;
32152;SDS011;18656;50.580;11.392;2022-11-04T03:52:38;1.98;;;1.77;;
32152;SDS011;18656;50.580;11.392;2022-11-04T03:55:06;3.80;;;2.00;;
32152;SDS011;18656;50.580;11.392;2022-11-04T04:00:20;2.72;;;2.22;;
32152;SDS011;18656;50.580;11.392;2022-11-04T04:05:23;1.83;;;1.73;;
32152;SDS011;18656;50.580;11.392;2022-11-04T04:13:22;2.70;;;2.08;;
32152;SDS011;18656;50.580;11.392;2022-11-04T04:15:53;1.98;;;1.88;;
32152;SDS011;18656;50.580;11.392;2022-11-04T04:18:23;1.90;;;1.80;;
32152;SDS011;18656;50.580;11.392;2022-11-04T04:20:52;2.65;;;1.63;;
32152;SDS011;18656;50.580;11.392;2022-11-04T04:23:22;1.70;;;1.60;;
32152;SDS011;18656;50.580;11.392;2022-11-04T04:26:09;1.60;;;1.50;;
32152;SDS011;18656;50.580;11.392;2022-11-04T04:28:57;2.72;;;1.77;;
32152;SDS011;18656;50.580;11.392;2022-11-04T04:31:26;1.52;;;1.52;;
32152;SDS011;18656;50.580;11.392;2022-11-04T04:34:14;3.15;;;1.90;;
32152;SDS011;18656;50.580;11.392;2022-11-04T04:36:45;1.70;;;1.60;;
32152;SDS011;18656;50.580;11.392;2022-11-04T04:39:13;1.70;;;1.60;;
32152;SDS011;18656;50.580;11.392;2022-11-04T04:42:01;2.50;;;1.85;;
32152;SDS011;18656;50.580;11.392;2022-11-04T04:44:47;2.25;;;2.05;;
32152;SDS011;18656;50.580;11.392;2022-11-04T04:47:33;2.05;;;1.70;;
32152;SDS011;18656;50.580;11.392;2022-11-04T04:50:01;1.70;;;1.60;;
32152;SDS011;18656;50.580;11.392;2022-11-04T04:52:38;2.33;;;2.08;;
32152;SDS011;18656;50.580;11.392;2022-11-04T04:55:06;3.90;;;2.25;;
32152;SDS011;18656;50.580;11.392;2022-11-04T04:57:34;2.30;;;2.20;;
32152;SDS011;18656;50.580;11.392;2022-11-04T05:00:02;3.53;;;2.22;;
32152;SDS011;18656;50.580;11.392;2022-11-04T05:02:29;2.60;;;2.40;;
32152;SDS011;18656;50.580;11.392;2022-11-04T05:04:57;1.90;;;1.80;;
32152;SDS011;18656;50.580;11.392;2022-11-04T05:07:24;4.30;;;3.55;;
32152;SDS011;18656;50.580;11.392;2022-11-04T05:09:51;22.23;;;15.23;;
32152;SDS011;18656;50.580;11.392;2022-11-04T05:12:19;16.50;;;11.95;;
32152;SDS011;18656;50.580;11.392;2022-11-04T05:14:46;18.23;;;12.80;;
32152;SDS011;18656;50.580;11.392;2022-11-04T05:17:13;13.32;;;8.63;;
32152;SDS011;18656;50.580;11.392;2022-11-04T05:19:41;7.75;;;5.35;;
32152;SDS011;18656;50.580;11.392;2022-11-04T05:22:08;5.53;;;3.90;;
32152;SDS011;18656;50.580;11.392;2022-11-04T05:24:35;3.95;;;3.65;;
32152;SDS011;18656;50.580;11.392;2022-11-04T05:27:02;8.93;;;3.55;;
32152;SDS011;18656;50.580;11.392;2022-11-04T05:29:29;2.83;;;2.50;;
32152;SDS011;18656;50.580;11.392;2022-11-04T05:31:57;3.47;;;2.90;;
32152;SDS011;18656;50.580;11.392;2022-11-04T05:34:24;2.70;;;2.50;;
32152;SDS011;18656;50.580;11.392;2022-11-04T05:36:52;3.80;;;2.70;;
32152;SDS011;18656;50.580;11.392;2022-11-04T05:39:19;3.88;;;2.63;;
32152;SDS011;18656;50.580;11.392;2022-11-04T05:41:46;3.38;;;2.70;;
32152;SDS011;18656;50.580;11.392;2022-11-04T05:44:14;3.90;;;2.70;;
32152;SDS011;18656;50.580;11.392;2022-11-04T05:46:41;5.10;;;2.80;;
32152;SDS011;18656;50.580;11.392;2022-11-04T05:49:08;4.85;;;3.33;;
32152;SDS011;18656;50.580;11.392;2022-11-04T05:51:36;11.35;;;3.50;;
32152;SDS011;18656;50.580;11.392;2022-11-04T05:54:03;11.77;;;3.53;;
32152;SDS011;18656;50.580;11.392;2022-11-04T05:56:30;5.90;;;4.97;;
32152;SDS011;18656;50.580;11.392;2022-11-04T05:58:58;7.35;;;4.80;;
32152;SDS011;18656;50.580;11.392;2022-11-04T06:01:29;5.13;;;4.63;;
32152;SDS011;18656;50.580;11.392;2022-11-04T06:03:57;4.95;;;4.05;;
32152;SDS011;18656;50.580;11.392;2022-11-04T06:06:26;6.13;;;4.68;;
32152;SDS011;18656;50.580;11.392;2022-11-04T06:08:53;5.03;;;3.45;;
32152;SDS011;18656;50.580;11.392;2022-11-04T06:11:21;4.55;;;3.60;;
32152;SDS011;18656;50.580;11.392;2022-11-04T06:13:48;4.40;;;3.88;;
32152;SDS011;18656;50.580;11.392;2022-11-04T06:16:16;5.47;;;3.60;;
32152;SDS011;18656;50.580;11.392;2022-11-04T06:18:43;7.25;;;3.53;;
32152;SDS011;18656;50.580;11.392;2022-11-04T06:23:41;7.47;;;3.65;;
32152;SDS011;18656;50.580;11.392;2022-11-04T06:26:08;5.35;;;3.60;;
32152;SDS011;18656;50.580;11.392;2022-11-04T06:28:36;6.10;;;3.30;;
32152;SDS011;18656;50.580;11.392;2022-11-04T06:31:05;4.90;;;3.88;;
32152;SDS011;18656;50.580;11.392;2022-11-04T06:33:32;5.05;;;3.75;;
32152;SDS011;18656;50.580;11.392;2022-11-04T06:36:03;7.20;;;3.53;;
32152;SDS011;18656;50.580;11.392;2022-11-04T06:38:31;4.80;;;3.92;;
32152;SDS011;18656;50.580;11.392;2022-11-04T06:40:59;5.65;;;3.92;;
32152;SDS011;18656;50.580;11.392;2022-11-04T06:43:26;5.78;;;4.05;;
32152;SDS011;18656;50.580;11.392;2022-11-04T06:45:57;5.53;;;4.18;;
32152;SDS011;18656;50.580;11.392;2022-11-04T06:48:25;7.68;;;4.13;;
32152;SDS011;18656;50.580;11.392;2022-11-04T06:50:52;6.72;;;4.50;;
32152;SDS011;18656;50.580;11.392;2022-11-04T06:53:20;9.00;;;4.00;;
32152;SDS011;18656;50.580;11.392;2022-11-04T06:55:47;22.00;;;8.82;;
32152;SDS011;18656;50.580;11.392;2022-11-04T06:58:14;11.52;;;5.65;;
32152;SDS011;18656;50.580;11.392;2022-11-04T07:00:41;15.05;;;5.35;;
32152;SDS011;18656;50.580;11.392;2022-11-04T07:03:09;3.53;;;2.60;;
32152;SDS011;18656;50.580;11.392;2022-11-04T07:05:36;12.90;;;5.00;;
32152;SDS011;18656;50.580;11.392;2022-11-04T07:08:04;8.27;;;4.68;;
32152;SDS011;18656;50.580;11.392;2022-11-04T07:10:32;11.10;;;4.75;;
32152;SDS011;18656;50.580;11.392;2022-11-04T07:12:59;9.63;;;5.50;;
32152;SDS011;18656;50.580;11.392;2022-11-04T07:15:26;11.68;;;4.65;;
32152;SDS011;18656;50.580;11.392;2022-11-04T07:17:54;11.82;;;5.60;;
32152;SDS011;18656;50.580;11.392;2022-11-04T07:20:21;7.57;;;4.90;;
32152;SDS011;18656;50.580;11.392;2022-11-04T07:22:48;9.65;;;5.28;;
32152;SDS011;18656;50.580;11.392;2022-11-04T07:25:15;10.07;;;5.00;;
32152;SDS011;18656;50.580;11.392;2022-11-04T07:27:42;7.55;;;4.20;;
32152;SDS011;18656;50.580;11.392;2022-11-04T07:30:10;6.25;;;3.60;;
32152;SDS011;18656;50.580;11.392;2022-11-04T07:32:37;6.47;;;3.83;;
32152;SDS011;18656;50.580;11.392;2022-11-04T07:35:05;8.88;;;3.90;;
32152;SDS011;18656;50.580;11.392;2022-11-04T07:37:32;8.23;;;4.13;;
32152;SDS011;18656;50.580;11.392;2022-11-04T07:39:59;5.82;;;3.88;;
32152;SDS011;18656;50.580;11.392;2022-11-04T07:42:27;4.18;;;3.78;;
32152;SDS011;18656;50.580;11.392;2022-11-04T07:44:54;3.95;;;3.53;;
32152;SDS011;18656;50.580;11.392;2022-11-04T07:47:21;6.00;;;3.33;;
32152;SDS011;18656;50.580;11.392;2022-11-04T07:49:48;7.28;;;3.28;;
32152;SDS011;18656;50.580;11.392;2022-11-04T07:52:15;6.60;;;4.07;;
32152;SDS011;18656;50.580;11.392;2022-11-04T07:54:43;7.03;;;5.93;;
32152;SDS011;18656;50.580;11.392;2022-11-04T07:57:10;9.38;;;4.88;;
32152;SDS011;18656;50.580;11.392;2022-11-04T07:59:37;6.63;;;5.40;;
32152;SDS011;18656;50.580;11.392;2022-11-04T08:02:04;11.75;;;5.68;;
32152;SDS011;18656;50.580;11.392;2022-11-04T08:04:32;14.10;;;4.28;;
32152;SDS011;18656;50.580;11.392;2022-11-04T08:06:59;8.55;;;4.05;;
32152;SDS011;18656;50.580;11.392;2022-11-04T08:09:27;14.88;;;4.50;;
32152;SDS011;18656;50.580;11.392;2022-11-04T08:11:54;8.15;;;4.53;;
32152;SDS011;18656;50.580;11.392;2022-11-04T08:14:21;11.10;;;4.80;;
32152;SDS011;18656;50.580;11.392;2022-11-04T08:16:49;9.95;;;4.00;;
32152;SDS011;18656;50.580;11.392;2022-11-04T08:19:16;13.88;;;4.47;;
32152;SDS011;18656;50.580;11.392;2022-11-04T08:21:43;8.82;;;4.38;;
32152;SDS011;18656;50.580;11.392;2022-11-04T08:24:10;12.57;;;4.60;;
32152;SDS011;18656;50.580;11.392;2022-11-04T08:26:38;17.40;;;5.93;;
32152;SDS011;18656;50.580;11.392;2022-11-04T08:29:06;9.40;;;4.93;;
32152;SDS011;18656;50.580;11.392;2022-11-04T08:31:33;12.10;;;5.20;;
32152;SDS011;18656;50.580;11.392;2022-11-04T08:34:00;5.13;;;3.40;;
32152;SDS011;18656;50.580;11.392;2022-11-04T08:36:29;5.78;;;3.88;;
32152;SDS011;18656;50.580;11.392;2022-11-04T08:38:57;5.75;;;3.28;;
32152;SDS011;18656;50.580;11.392;2022-11-04T08:41:26;4.68;;;2.88;;
32152;SDS011;18656;50.580;11.392;2022-11-04T08:43:54;2.90;;;2.67;;
32152;SDS011;18656;50.580;11.392;2022-11-04T08:46:29;3.40;;;3.05;;
32152;SDS011;18656;50.580;11.392;2022-11-04T08:48:57;3.27;;;2.97;;
32152;SDS011;18656;50.580;11.392;2022-11-04T08:51:25;4.55;;;2.53;;
32152;SDS011;18656;50.580;11.392;2022-11-04T08:53:53;5.47;;;2.35;;
32152;SDS011;18656;50.580;11.392;2022-11-04T08:56:25;10.05;;;3.22;;
32152;SDS011;18656;50.580;11.392;2022-11-04T08:58:54;9.77;;;2.47;;
32152;SDS011;18656;50.580;11.392;2022-11-04T09:01:21;4.05;;;2.80;;
32152;SDS011;18656;50.580;11.392;2022-11-04T09:03:49;5.47;;;4.38;;
32152;SDS011;18656;50.580;11.392;2022-11-04T09:06:18;5.22;;;3.72;;
32152;SDS011;18656;50.580;11.392;2022-11-04T09:08:46;4.90;;;2.08;;
32152;SDS011;18656;50.580;11.392;2022-11-04T09:11:13;1.63;;;1.10;;
32152;SDS011;18656;50.580;11.392;2022-11-04T09:13:41;1.92;;;1.20;;
32152;SDS011;18656;50.580;11.392;2022-11-04T09:16:10;1.80;;;1.00;;
32152;SDS011;18656;50.580;11.392;2022-11-04T09:18:37;2.38;;;0.90;;
32152;SDS011;18656;50.580;11.392;2022-11-04T09:21:05;1.98;;;1.20;;
32152;SDS011;18656;50.580;11.392;2022-11-04T09:23:33;3.92;;;1.35;;
32152;SDS011;18656;50.580;11.392;2022-11-04T09:26:07;4.78;;;3.05;;
32152;SDS011;18656;50.580;11.392;2022-11-04T09:28:35;10.02;;;7.05;;
32152;SDS011;18656;50.580;11.392;2022-11-04T09:31:06;6.80;;;6.07;;
32152;SDS011;18656;50.580;11.392;2022-11-04T09:33:34;5.60;;;5.13;;
32152;SDS011;18656;50.580;11.392;2022-11-04T09:36:01;3.92;;;3.63;;
32152;SDS011;18656;50.580;11.392;2022-11-04T09:38:28;4.32;;;3.13;;
32152;SDS011;18656;50.580;11.392;2022-11-04T09:40:56;2.60;;;2.40;;
32152;SDS011;18656;50.580;11.392;2022-11-04T09:43:49;2.67;;;2.35;;
32152;SDS011;18656;50.580;11.392;2022-11-04T09:46:12;1.92;;;1.83;;
32152;SDS011;18656;50.580;11.392;2022-11-04T09:48:46;1.45;;;1.35;;
32152;SDS011;18656;50.580;11.392;2022-11-04T09:51:15;3.10;;;1.60;;
32152;SDS011;18656;50.580;11.392;2022-11-04T09:54:07;1.58;;;1.20;;
32152;SDS011;18656;50.580;11.392;2022-11-04T09:56:36;1.05;;;0.70;;
32152;SDS011;18656;50.580;11.392;2022-11-04T09:59:04;8.93;;;1.10;;
32152;SDS011;18656;50.580;11.392;2022-11-04T10:01:36;1.73;;;0.85;;
32152;SDS011;18656;50.580;11.392;2022-11-04T10:09:40;1.17;;;1.10;;
32152;SDS011;18656;50.580;11.392;2022-11-04T10:14:49;1.60;;;1.20;;
32152;SDS011;18656;50.580;11.392;2022-11-04T10:17:29;2.35;;;1.20;;
32152;SDS011;18656;50.580;11.392;2022-11-04T10:22:30;4.18;;;1.40;;
32152;SDS011;18656;50.580;11.392;2022-11-04T10:27:32;1.60;;;1.30;;
32152;SDS011;18656;50.580;11.392;2022-11-04T10:30:03;1.38;;;1.27;;
32152;SDS011;18656;50.580;11.392;2022-11-04T10:32:32;2.75;;;0.85;;
32152;SDS011;18656;50.580;11.392;2022-11-04T10:35:03;2.35;;;0.80;;
32152;SDS011;18656;50.580;11.392;2022-11-04T10:37:32;2.20;;;1.15;;
32152;SDS011;18656;50.580;11.392;2022-11-04T10:40:16;3.58;;;2.35;;
32152;SDS011;18656;50.580;11.392;2022-11-04T10:42:47;5.38;;;3.17;;
32152;SDS011;18656;50.580;11.392;2022-11-04T10:45:16;2.75;;;2.53;;
32152;SDS011;18656;50.580;11.392;2022-11-04T10:47:56;3.05;;;2.30;;
32152;SDS011;18656;50.580;11.392;2022-11-04T10:50:33;2.30;;;2.10;;
32152;SDS011;18656;50.580;11.392;2022-11-04T11:00:39;5.50;;;3.40;;
32152;SDS011;18656;50.580;11.392;2022-11-04T11:05:55;7.70;;;5.90;;
32152;SDS011;18656;50.580;11.392;2022-11-04T11:08:35;13.85;;;8.70;;
32152;SDS011;18656;50.580;11.392;2022-11-04T11:11:06;15.75;;;9.55;;
32152;SDS011;18656;50.580;11.392;2022-11-04T11:13:35;14.93;;;10.10;;
32152;SDS011;18656;50.580;11.392;2022-11-04T11:16:16;14.73;;;8.77;;
32152;SDS011;18656;50.580;11.392;2022-11-04T11:18:44;13.15;;;8.00;;
32152;SDS011;18656;50.580;11.392;2022-11-04T11:21:12;16.55;;;8.18;;
32152;SDS011;18656;50.580;11.392;2022-11-04T11:23:42;13.02;;;8.18;;
32152;SDS011;18656;50.580;11.392;2022-11-04T11:26:21;11.68;;;5.82;;
32152;SDS011;18656;50.580;11.392;2022-11-04T11:28:56;4.97;;;3.15;;
32152;SDS011;18656;50.580;11.392;2022-11-04T11:31:34;4.18;;;1.15;;
32152;SDS011;18656;50.580;11.392;2022-11-04T11:34:06;3.10;;;1.65;;
32152;SDS011;18656;50.580;11.392;2022-11-04T11:36:39;3.58;;;1.85;;
32152;SDS011;18656;50.580;11.392;2022-11-04T11:41:50;3.10;;;1.10;;
32152;SDS011;18656;50.580;11.392;2022-11-04T11:44:21;2.72;;;0.95;;
32152;SDS011;18656;50.580;11.392;2022-11-04T11:46:54;6.53;;;1.20;;
32152;SDS011;18656;50.580;11.392;2022-11-04T11:49:24;4.95;;;0.88;;
32152;SDS011;18656;50.580;11.392;2022-11-04T11:51:53;4.90;;;0.73;;
32152;SDS011;18656;50.580;11.392;2022-11-04T11:56:52;1.85;;;0.45;;
32152;SDS011;18656;50.580;11.392;2022-11-04T12:02:33;4.47;;;0.82;;
32152;SDS011;18656;50.580;11.392;2022-11-04T12:05:01;2.70;;;0.85;;
32152;SDS011;18656;50.580;11.392;2022-11-04T12:10:47;3.40;;;0.90;;
32152;SDS011;18656;50.580;11.392;2022-11-04T12:13:28;4.72;;;0.93;;
32152;SDS011;18656;50.580;11.392;2022-11-04T12:21:22;6.63;;;0.93;;
32152;SDS011;18656;50.580;11.392;2022-11-04T12:24:12;2.72;;;0.73;;
32152;SDS011;18656;50.580;11.392;2022-11-04T12:27:46;3.38;;;0.73;;
32152;SDS011;18656;50.580;11.392;2022-11-04T12:29:49;4.45;;;0.80;;
32152;SDS011;18656;50.580;11.392;2022-11-04T12:40:19;7.82;;;0.85;;
32152;SDS011;18656;50.580;11.392;2022-11-04T12:45:21;2.55;;;0.98;;
32152;SDS011;18656;50.580;11.392;2022-11-04T12:47:50;3.05;;;0.93;;
32152;SDS011;18656;50.580;11.392;2022-11-04T13:01:12;2.92;;;0.70;;
32152;SDS011;18656;50.580;11.392;2022-11-04T13:06:28;2.85;;;0.80;;
32152;SDS011;18656;50.580;11.392;2022-11-04T13:09:00;2.72;;;0.90;;
32152;SDS011;18656;50.580;11.392;2022-11-04T13:11:30;5.38;;;1.00;;
32152;SDS011;18656;50.580;11.392;2022-11-04T13:14:01;3.42;;;0.70;;
32152;SDS011;18656;50.580;11.392;2022-11-04T13:16:31;3.15;;;1.02;;
32152;SDS011;18656;50.580;11.392;2022-11-04T13:19:00;6.50;;;2.30;;
32152;SDS011;18656;50.580;11.392;2022-11-04T13:21:29;5.13;;;2.85;;
32152;SDS011;18656;50.580;11.392;2022-11-04T13:24:02;2.90;;;1.35;;
32152;SDS011;18656;50.580;11.392;2022-11-04T13:26:30;5.43;;;1.40;;
32152;SDS011;18656;50.580;11.392;2022-11-04T13:29:00;6.35;;;1.20;;
32152;SDS011;18656;50.580;11.392;2022-11-04T13:31:45;8.95;;;1.75;;
32152;SDS011;18656;50.580;11.392;2022-11-04T13:39:21;2.20;;;0.80;;
32152;SDS011;18656;50.580;11.392;2022-11-04T13:41:57;2.65;;;0.80;;
32152;SDS011;18656;50.580;11.392;2022-11-04T13:44:30;5.28;;;0.80;;
32152;SDS011;18656;50.580;11.392;2022-11-04T13:46:58;5.53;;;0.90;;
32152;SDS011;18656;50.580;11.392;2022-11-04T13:49:28;7.35;;;1.00;;
32152;SDS011;18656;50.580;11.392;2022-11-04T13:52:03;3.78;;;1.50;;
32152;SDS011;18656;50.580;11.392;2022-11-04T13:57:47;7.93;;;0.90;;
32152;SDS011;18656;50.580;11.392;2022-11-04T14:16:03;3.10;;;1.85;;
32152;SDS011;18656;50.580;11.392;2022-11-04T14:18:32;5.68;;;2.05;;
32152;SDS011;18656;50.580;11.392;2022-11-04T14:21:01;5.45;;;2.55;;
32152;SDS011;18656;50.580;11.392;2022-11-04T14:23:29;4.50;;;1.90;;
32152;SDS011;18656;50.580;11.392;2022-11-04T14:25:57;2.38;;;1.63;;
32152;SDS011;18656;50.580;11.392;2022-11-04T14:28:27;3.67;;;1.83;;
32152;SDS011;18656;50.580;11.392;2022-11-04T14:30:59;3.40;;;2.70;;
32152;SDS011;18656;50.580;11.392;2022-11-04T14:36:12;9.25;;;2.10;;
32152;SDS011;18656;50.580;11.392;2022-11-04T14:38:40;17.50;;;2.90;;
32152;SDS011;18656;50.580;11.392;2022-11-04T14:41:22;22.30;;;3.03;;
32152;SDS011;18656;50.580;11.392;2022-11-04T14:44:00;7.22;;;1.70;;
32152;SDS011;18656;50.580;11.392;2022-11-04T14:46:29;8.03;;;1.37;;
32152;SDS011;18656;50.580;11.392;2022-11-04T14:48:57;7.03;;;1.30;;
32152;SDS011;18656;50.580;11.392;2022-11-04T14:51:28;3.38;;;1.30;;
32152;SDS011;18656;50.580;11.392;2022-11-04T14:54:03;8.63;;;2.00;;
32152;SDS011;18656;50.580;11.392;2022-11-04T14:56:31;5.95;;;1.45;;
32152;SDS011;18656;50.580;11.392;2022-11-04T14:58:59;8.93;;;1.70;;
32152;SDS011;18656;50.580;11.392;2022-11-04T15:01:29;11.63;;;2.45;;
32152;SDS011;18656;50.580;11.392;2022-11-04T15:04:12;8.18;;;2.30;;
32152;SDS011;18656;50.580;11.392;2022-11-04T15:06:40;12.80;;;3.25;;
32152;SDS011;18656;50.580;11.392;2022-11-04T15:09:23;11.70;;;4.28;;
32152;SDS011;18656;50.580;11.392;2022-11-04T15:12:11;8.77;;;3.75;;
32152;SDS011;18656;50.580;11.392;2022-11-04T15:14:58;5.60;;;3.03;;
32152;SDS011;18656;50.580;11.392;2022-11-04T15:17:26;5.28;;;2.92;;
32152;SDS011;18656;50.580;11.392;2022-11-04T15:19:55;5.50;;;3.00;;
32152;SDS011;18656;50.580;11.392;2022-11-04T15:22:24;3.45;;;2.20;;
32152;SDS011;18656;50.580;11.392;2022-11-04T15:24:52;3.47;;;1.92;;
32152;SDS011;18656;50.580;11.392;2022-11-04T15:27:24;5.97;;;3.00;;
32152;SDS011;18656;50.580;11.392;2022-11-04T15:29:55;8.73;;;4.20;;
32152;SDS011;18656;50.580;11.392;2022-11-04T15:32:22;11.05;;;2.70;;
32152;SDS011;18656;50.580;11.392;2022-11-04T15:34:50;7.72;;;3.55;;
32152;SDS011;18656;50.580;11.392;2022-11-04T15:37:18;17.70;;;4.05;;
32152;SDS011;18656;50.580;11.392;2022-11-04T15:39:47;15.55;;;3.67;;
32152;SDS011;18656;50.580;11.392;2022-11-04T15:42:17;25.20;;;3.92;;
32152;SDS011;18656;50.580;11.392;2022-11-04T15:47:48;19.77;;;3.38;;
32152;SDS011;18656;50.580;11.392;2022-11-04T15:50:35;19.08;;;6.60;;
32152;SDS011;18656;50.580;11.392;2022-11-04T15:53:07;10.63;;;4.43;;
32152;SDS011;18656;50.580;11.392;2022-11-04T15:55:35;13.25;;;3.83;;
32152;SDS011;18656;50.580;11.392;2022-11-04T15:58:04;17.48;;;3.72;;
32152;SDS011;18656;50.580;11.392;2022-11-04T16:00:34;18.40;;;3.55;;
32152;SDS011;18656;50.580;11.392;2022-11-04T16:03:02;8.70;;;2.97;;
32152;SDS011;18656;50.580;11.392;2022-11-04T16:05:35;21.48;;;4.10;;
32152;SDS011;18656;50.580;11.392;2022-11-04T16:08:13;12.80;;;2.78;;
32152;SDS011;18656;50.580;11.392;2022-11-04T16:10:44;18.42;;;3.15;;
32152;SDS011;18656;50.580;11.392;2022-11-04T16:15:46;19.05;;;4.00;;
32152;SDS011;18656;50.580;11.392;2022-11-04T16:18:19;10.80;;;3.38;;
32152;SDS011;18656;50.580;11.392;2022-11-04T16:20:47;9.95;;;4.25;;
32152;SDS011;18656;50.580;11.392;2022-11-04T16:23:16;66.63;;;8.77;;
32152;SDS011;18656;50.580;11.392;2022-11-04T16:25:44;24.27;;;4.95;;
32152;SDS011;18656;50.580;11.392;2022-11-04T16:28:18;17.35;;;5.78;;
32152;SDS011;18656;50.580;11.392;2022-11-04T16:30:56;7.75;;;3.47;;
32152;SDS011;18656;50.580;11.392;2022-11-04T16:33:26;7.10;;;4.05;;
32152;SDS011;18656;50.580;11.392;2022-11-04T16:35:53;14.23;;;7.13;;
32152;SDS011;18656;50.580;11.392;2022-11-04T16:38:20;17.77;;;11.50;;
32152;SDS011;18656;50.580;11.392;2022-11-04T16:40:48;18.20;;;8.38;;
32152;SDS011;18656;50.580;11.392;2022-11-04T16:43:16;28.85;;;9.55;;
32152;SDS011;18656;50.580;11.392;2022-11-04T16:45:46;15.40;;;10.07;;
32152;SDS011;18656;50.580;11.392;2022-11-04T16:48:19;13.60;;;8.35;;
32152;SDS011;18656;50.580;11.392;2022-11-04T16:50:46;24.02;;;8.45;;
32152;SDS011;18656;50.580;11.392;2022-11-04T16:53:14;29.00;;;14.60;;
32152;SDS011;18656;50.580;11.392;2022-11-04T16:55:42;23.85;;;13.32;;
32152;SDS011;18656;50.580;11.392;2022-11-04T16:58:11;14.23;;;7.68;;
32152;SDS011;18656;50.580;11.392;2022-11-04T17:00:40;19.67;;;7.03;;
32152;SDS011;18656;50.580;11.392;2022-11-04T17:03:18;10.57;;;7.95;;
32152;SDS011;18656;50.580;11.392;2022-11-04T17:05:50;12.45;;;8.02;;